Αρχική σελίδα
METAR-TAF:

METAR-TAF

Αεροδρόμια :

York Municipal Airport

York, Νεμπράσκα, Ηνωμένες Πολιτείες Αμερικής

γεωγραφικό πλάτος: 40-53-48N, γεωγραφικό μήκος: 097-37-22W, υψόμετρο: 509 μ

Παρών καιρός

Η αναφορά έγινε 19 λεπτά πριν, στις 01:55 UTC
Άνεμος 14 kt από Β/BA
Θερμοκρασία -6°C
Υγρασία 79%
Πίεση 1030 hPa
Ορατότητα: 11.3 χλμ
Λίγα νέφη σε ύψος 300 πόδια
Νεφοσκεπής σε ύψος 2200 πόδια
Ασθενές χιόνι

METAR: KJYR 180155Z AUTO 02014KT 7SM -SN FEW003 OVC022 M06/M09 A3042 RMK AO2

Χρόνος: 20:14 (02:14 UTC)


TAF: λείπει

Μετεωρολογικές αναφορές και προγνώσεις για περισσότερα από 4000 αεροδρόμια (δελτία METAR και TAF).

Οι διαθέσιμοι σταθμοί απεικονίζονται στο χάρτη με κίτρινες και κόκκινες κουκκίδες.

Μετακινήστε το ποντίκι πάνω από τις κουκκίδες για να δείτε το όνομα του σταθμού.

Στη συνέχεια, κάντε κλικ για να δείτε τις μετεωρολογικές αναφορές και τις προγνώσεις καιρού.

Για να αλλάξετε το χάρτη: κάντε κλικ στα πράσινα κουμπιά με τον μαύρο σταυρό για να ζουμάρετε, στο πράσινο κουμπί με την παύλα για να αφαιρέσετε το ζουμ ή στα πράσινα βέλη για να αντιπαραβάλλετε χάρτες.


METAR-TAF: